KQA310 HKJK-OMDB
Flight info
| Callsign | KQA310 |
|---|---|
| Flight time | N/A |
| Altitude | 33000 |
| Route | ATUDU1D WAV UP312 MAV UB403 AXIKU/N0474F350 UB403 BOMIX B403 RIGAM B400 DAXAM Y414 DEDSO R401 VELIK/N0470F360 R401 MUSAP/N0412F210 R401 PEDOG Q308 KIPOK/N0467F340 Q568 IMPED |
| Aircraft | B738/M-SDE2E3FGHIRWXY/LB1 |
Departure
| Time | N/A |
|---|---|
| Airport | Jomo Kenyatta International Airport (HKJK) |
Arrival
| Time | 2026-04-21 09:56 |
|---|---|
| Airport | Dubai International Airport (OMDB) |
| Time | Latitude | Longitude | Altitude | Speed | Heading |
|---|---|---|---|---|---|
| 2026-04-21 09:12 | 21.37458 | 56.16342 | 34769 ft | 415 kts | 347° |
| 2026-04-21 09:12 | 21.40318 | 56.15922 | 34771 ft | 416 kts | 347° |
| 2026-04-21 09:12 | 21.46055 | 56.15081 | 34776 ft | 417 kts | 347° |
| 2026-04-21 09:13 | 21.51738 | 56.14244 | 34762 ft | 415 kts | 347° |
| 2026-04-21 09:13 | 21.57470 | 56.13405 | 34766 ft | 418 kts | 347° |
| 2026-04-21 09:14 | 21.63234 | 56.12553 | 34762 ft | 418 kts | 347° |
| 2026-04-21 09:14 | 21.68994 | 56.11704 | 34770 ft | 418 kts | 347° |
| 2026-04-21 09:15 | 21.74758 | 56.10856 | 34774 ft | 417 kts | 347° |
| 2026-04-21 09:15 | 21.80524 | 56.10000 | 34772 ft | 420 kts | 347° |
| 2026-04-21 09:16 | 21.86059 | 56.09184 | 34777 ft | 420 kts | 347° |
| 2026-04-21 09:16 | 21.91849 | 56.08329 | 34781 ft | 418 kts | 347° |
| 2026-04-21 09:17 | 21.97620 | 56.07473 | 34780 ft | 419 kts | 347° |
| 2026-04-21 09:17 | 22.03380 | 56.06622 | 34793 ft | 419 kts | 347° |
| 2026-04-21 09:18 | 22.09173 | 56.05765 | 34786 ft | 421 kts | 347° |
| 2026-04-21 09:18 | 22.14985 | 56.04904 | 34783 ft | 421 kts | 347° |
| 2026-04-21 09:19 | 22.20791 | 56.04046 | 34787 ft | 421 kts | 347° |
| 2026-04-21 09:19 | 22.26566 | 56.03192 | 34794 ft | 419 kts | 347° |
| 2026-04-21 09:20 | 22.32359 | 56.02330 | 34783 ft | 422 kts | 347° |
| 2026-04-21 09:20 | 22.38172 | 56.01467 | 34768 ft | 422 kts | 347° |
| 2026-04-21 09:21 | 22.43978 | 56.00612 | 34773 ft | 421 kts | 347° |
| 2026-04-21 09:21 | 22.49784 | 55.99754 | 34787 ft | 423 kts | 347° |
| 2026-04-21 09:22 | 22.55623 | 55.98888 | 34783 ft | 423 kts | 346° |
| 2026-04-21 09:22 | 22.61454 | 55.98020 | 34791 ft | 424 kts | 347° |
| 2026-04-21 09:23 | 22.67257 | 55.97162 | 34785 ft | 422 kts | 347° |
| 2026-04-21 09:23 | 22.73118 | 55.96296 | 34793 ft | 426 kts | 347° |
| 2026-04-21 09:24 | 22.78984 | 55.95423 | 34796 ft | 424 kts | 347° |
| 2026-04-21 09:24 | 22.84825 | 55.94559 | 34800 ft | 425 kts | 347° |
| 2026-04-21 09:25 | 22.90669 | 55.93682 | 34798 ft | 423 kts | 346° |
| 2026-04-21 09:25 | 22.96502 | 55.92809 | 34808 ft | 423 kts | 347° |
| 2026-04-21 09:26 | 23.02338 | 55.91937 | 34809 ft | 426 kts | 346° |
| 2026-04-21 09:26 | 23.08206 | 55.91052 | 34806 ft | 425 kts | 346° |
| 2026-04-21 09:27 | 23.14062 | 55.90174 | 34812 ft | 425 kts | 347° |
| 2026-04-21 09:27 | 23.19939 | 55.89286 | 34814 ft | 429 kts | 347° |
| 2026-04-21 09:28 | 23.25817 | 55.88406 | 34817 ft | 425 kts | 346° |
| 2026-04-21 09:28 | 23.31681 | 55.87517 | 34821 ft | 429 kts | 346° |
| 2026-04-21 09:29 | 23.37595 | 55.86619 | 34822 ft | 427 kts | 347° |
| 2026-04-21 09:29 | 23.43477 | 55.85717 | 34828 ft | 429 kts | 346° |
| 2026-04-21 09:30 | 23.49389 | 55.84808 | 34823 ft | 429 kts | 347° |
| 2026-04-21 09:30 | 23.55317 | 55.83924 | 34819 ft | 431 kts | 346° |
| 2026-04-21 09:31 | 23.61250 | 55.83023 | 34824 ft | 430 kts | 346° |
| 2026-04-21 09:31 | 23.67178 | 55.82181 | 34828 ft | 432 kts | 349° |
| 2026-04-21 09:32 | 23.73248 | 55.82063 | 34827 ft | 442 kts | 357° |
| 2026-04-21 09:32 | 23.79417 | 55.82634 | 34820 ft | 443 kts | 359° |
| 2026-04-21 09:33 | 23.85547 | 55.83276 | 34828 ft | 444 kts | 359° |
| 2026-04-21 09:33 | 23.87589 | 55.83488 | 34829 ft | 444 kts | 359° |
| 2026-04-21 09:34 | 24.03804 | 55.85180 | 34651 ft | 439 kts | 360° |
| 2026-04-21 09:35 | 24.06833 | 55.85504 | 34060 ft | 438 kts | 360° |
| 2026-04-21 09:35 | 24.09860 | 55.85821 | 33332 ft | 440 kts | 0° |
| 2026-04-21 09:35 | 24.12910 | 55.86134 | 32525 ft | 443 kts | 1° |
| 2026-04-21 09:35 | 24.15983 | 55.86449 | 31679 ft | 446 kts | 1° |
| 2026-04-21 09:36 | 24.19102 | 55.86774 | 30791 ft | 450 kts | 2° |
| 2026-04-21 09:36 | 24.22223 | 55.87106 | 29881 ft | 454 kts | 2° |
| 2026-04-21 09:36 | 24.25370 | 55.87438 | 28935 ft | 459 kts | 2° |
| 2026-04-21 09:36 | 24.28550 | 55.87773 | 27955 ft | 464 kts | 2° |
| 2026-04-21 09:37 | 24.31758 | 55.88214 | 26922 ft | 472 kts | 9° |
| 2026-04-21 09:37 | 24.34904 | 55.89304 | 25879 ft | 481 kts | 21° |
| 2026-04-21 09:37 | 24.37898 | 55.90910 | 25149 ft | 479 kts | 25° |
| 2026-04-21 09:37 | 24.40822 | 55.92691 | 24410 ft | 478 kts | 26° |
| 2026-04-21 09:38 | 24.43689 | 55.94484 | 23628 ft | 476 kts | 29° |
| 2026-04-21 09:38 | 24.46313 | 55.96682 | 22836 ft | 479 kts | 42° |
| 2026-04-21 09:38 | 24.48486 | 55.99421 | 22048 ft | 479 kts | 50° |
| 2026-04-21 09:38 | 24.50593 | 56.02216 | 21222 ft | 476 kts | 46° |
| 2026-04-21 09:39 | 24.52891 | 56.04793 | 20416 ft | 473 kts | 42° |
| 2026-04-21 09:39 | 24.55282 | 56.07236 | 19581 ft | 468 kts | 40° |
| 2026-04-21 09:39 | 24.57763 | 56.09486 | 18782 ft | 454 kts | 33° |
| 2026-04-21 09:39 | 24.60420 | 56.11234 | 18009 ft | 441 kts | 25° |
| 2026-04-21 09:40 | 24.63181 | 56.12544 | 17225 ft | 428 kts | 16° |
| 2026-04-21 09:40 | 24.66014 | 56.13350 | 16485 ft | 416 kts | 9° |
| 2026-04-21 09:40 | 24.68824 | 56.13890 | 15738 ft | 406 kts | 7° |
| 2026-04-21 09:40 | 24.71599 | 56.14351 | 15033 ft | 404 kts | 7° |
| 2026-04-21 09:41 | 24.74369 | 56.14818 | 14354 ft | 403 kts | 7° |
| 2026-04-21 09:41 | 24.77154 | 56.15127 | 13684 ft | 399 kts | 359° |
| 2026-04-21 09:41 | 24.79899 | 56.14913 | 13012 ft | 395 kts | 349° |
| 2026-04-21 09:41 | 24.82516 | 56.14136 | 12387 ft | 384 kts | 338° |
| 2026-04-21 09:42 | 24.84917 | 56.13048 | 12082 ft | 363 kts | 334° |
| 2026-04-21 09:42 | 24.87140 | 56.11938 | 11921 ft | 339 kts | 334° |
| 2026-04-21 09:42 | 24.89217 | 56.10891 | 11785 ft | 318 kts | 334° |
| 2026-04-21 09:42 | 24.91174 | 56.09912 | 11668 ft | 301 kts | 334° |
| 2026-04-21 09:43 | 24.93066 | 56.08973 | 11498 ft | 294 kts | 334° |
| 2026-04-21 09:43 | 24.94914 | 56.08047 | 11333 ft | 288 kts | 331° |
| 2026-04-21 09:43 | 24.96484 | 56.06777 | 11149 ft | 277 kts | 309° |
| 2026-04-21 09:43 | 24.97400 | 56.04957 | 10836 ft | 273 kts | 286° |
| 2026-04-21 09:44 | 24.97740 | 56.02919 | 10495 ft | 272 kts | 277° |
| 2026-04-21 09:44 | 24.97936 | 56.00863 | 10159 ft | 270 kts | 276° |
| 2026-04-21 09:44 | 24.98131 | 55.98819 | 9838 ft | 269 kts | 276° |
| 2026-04-21 09:44 | 24.98330 | 55.96773 | 9529 ft | 267 kts | 277° |
| 2026-04-21 09:45 | 24.98527 | 55.94750 | 9201 ft | 266 kts | 277° |
| 2026-04-21 09:45 | 24.98721 | 55.92736 | 8860 ft | 265 kts | 277° |
| 2026-04-21 09:45 | 24.98915 | 55.90734 | 8544 ft | 263 kts | 277° |
| 2026-04-21 09:45 | 24.99108 | 55.88743 | 8238 ft | 262 kts | 277° |
| 2026-04-21 09:46 | 24.99300 | 55.86756 | 7909 ft | 261 kts | 277° |
| 2026-04-21 09:46 | 24.99490 | 55.84778 | 7597 ft | 261 kts | 277° |
| 2026-04-21 09:46 | 24.99718 | 55.82797 | 7289 ft | 259 kts | 283° |
| 2026-04-21 09:46 | 25.00402 | 55.80987 | 6977 ft | 257 kts | 302° |
| 2026-04-21 09:47 | 25.01360 | 55.79341 | 6651 ft | 256 kts | 303° |
| 2026-04-21 09:47 | 25.02306 | 55.77700 | 6361 ft | 254 kts | 302° |
| 2026-04-21 09:47 | 25.03232 | 55.76058 | 6066 ft | 253 kts | 302° |
| 2026-04-21 09:47 | 25.04154 | 55.74414 | 5763 ft | 253 kts | 302° |
| 2026-04-21 09:48 | 25.05073 | 55.72772 | 5446 ft | 253 kts | 302° |
| 2026-04-21 09:48 | 25.05993 | 55.71126 | 5203 ft | 248 kts | 302° |
| 2026-04-21 09:48 | 25.06878 | 55.69541 | 5122 ft | 238 kts | 302° |
| 2026-04-21 09:48 | 25.07722 | 55.68028 | 5054 ft | 227 kts | 302° |
| 2026-04-21 09:49 | 25.08528 | 55.66584 | 5004 ft | 216 kts | 302° |
| 2026-04-21 09:49 | 25.09287 | 55.65222 | 4942 ft | 203 kts | 302° |
| 2026-04-21 09:49 | 25.09996 | 55.63951 | 4886 ft | 189 kts | 302° |
| 2026-04-21 09:49 | 25.10660 | 55.62732 | 4707 ft | 185 kts | 301° |
| 2026-04-21 09:50 | 25.11310 | 55.61517 | 4466 ft | 183 kts | 302° |
| 2026-04-21 09:50 | 25.11959 | 55.60328 | 4226 ft | 181 kts | 302° |
| 2026-04-21 09:50 | 25.12604 | 55.59147 | 3989 ft | 180 kts | 302° |
| 2026-04-21 09:50 | 25.13257 | 55.57970 | 3744 ft | 180 kts | 302° |
| 2026-04-21 09:51 | 25.13908 | 55.56805 | 3510 ft | 177 kts | 303° |
| 2026-04-21 09:51 | 25.14553 | 55.55653 | 3274 ft | 176 kts | 303° |
| 2026-04-21 09:51 | 25.15186 | 55.54519 | 3054 ft | 174 kts | 303° |
| 2026-04-21 09:51 | 25.15811 | 55.53400 | 2842 ft | 165 kts | 303° |
| 2026-04-21 09:52 | 25.16401 | 55.52345 | 2596 ft | 159 kts | 303° |
| 2026-04-21 09:52 | 25.16975 | 55.51317 | 2416 ft | 158 kts | 303° |
| 2026-04-21 09:52 | 25.17549 | 55.50292 | 2237 ft | 153 kts | 303° |
| 2026-04-21 09:52 | 25.18106 | 55.49295 | 1990 ft | 154 kts | 304° |
| 2026-04-21 09:53 | 25.18658 | 55.48306 | 1810 ft | 153 kts | 303° |
| 2026-04-21 09:53 | 25.19221 | 55.47302 | 1622 ft | 155 kts | 303° |
| 2026-04-21 09:53 | 25.19782 | 55.46295 | 1405 ft | 151 kts | 303° |
| 2026-04-21 09:53 | 25.20327 | 55.45320 | 1220 ft | 151 kts | 303° |
| 2026-04-21 09:54 | 25.20875 | 55.44336 | 1027 ft | 152 kts | 303° |
| 2026-04-21 09:54 | 25.21419 | 55.43362 | 842 ft | 147 kts | 303° |
| 2026-04-21 09:54 | 25.21949 | 55.42409 | 662 ft | 145 kts | 304° |
| 2026-04-21 09:54 | 25.22479 | 55.41462 | 477 ft | 146 kts | 304° |
| 2026-04-21 09:55 | 25.23023 | 55.40514 | 289 ft | 147 kts | 304° |
| 2026-04-21 09:55 | 25.23556 | 55.39543 | 119 ft | 146 kts | 303° |
| 2026-04-21 09:55 | 25.24066 | 55.38634 | 4 ft | 124 kts | 302° |
| 2026-04-21 09:55 | 25.24435 | 55.37966 | 19 ft | 82 kts | 301° |
| 2026-04-21 09:56 | 25.24668 | 55.37545 | 29 ft | 48 kts | 301° |
| 2026-04-21 09:56 | 25.24776 | 55.37311 | 36 ft | 24 kts | 281° |
| 2026-04-21 09:56 | 25.24788 | 55.37115 | 45 ft | 28 kts | 272° |
| 2026-04-21 09:56 | 25.24809 | 55.36928 | 51 ft | 19 kts | 294° |
| 2026-04-21 09:57 | 25.24863 | 55.36779 | 42 ft | 23 kts | 281° |
| 2026-04-21 09:57 | 25.24925 | 55.36601 | 33 ft | 26 kts | 302° |
| 2026-04-21 09:57 | 25.25027 | 55.36420 | 19 ft | 28 kts | 302° |
| 2026-04-21 09:57 | 25.25130 | 55.36235 | 7 ft | 29 kts | 301° |
| 2026-04-21 09:58 | 25.25236 | 55.36045 | 3 ft | 29 kts | 301° |
| 2026-04-21 09:58 | 25.25339 | 55.35853 | 0 ft | 29 kts | 302° |
| 2026-04-21 09:58 | 25.25444 | 55.35664 | -4 ft | 29 kts | 302° |
| 2026-04-21 09:58 | 25.25551 | 55.35475 | -8 ft | 29 kts | 302° |
| 2026-04-21 09:59 | 25.25653 | 55.35288 | -9 ft | 28 kts | 302° |
| 2026-04-21 09:59 | 25.25752 | 55.35108 | -6 ft | 29 kts | 301° |
| 2026-04-21 09:59 | 25.25865 | 55.34912 | 2 ft | 32 kts | 300° |
| 2026-04-21 09:59 | 25.25983 | 55.34695 | 10 ft | 28 kts | 300° |
| 2026-04-21 10:00 | 25.26067 | 55.34538 | 15 ft | 22 kts | 301° |
| 2026-04-21 10:00 | 25.26134 | 55.34417 | 19 ft | 17 kts | 301° |
| 2026-04-21 10:00 | 25.26187 | 55.34317 | 21 ft | 14 kts | 302° |
| 2026-04-21 10:00 | 25.26248 | 55.34210 | 9 ft | 18 kts | 302° |
| 2026-04-21 10:01 | 25.26232 | 55.34115 | -5 ft | 15 kts | 215° |
| 2026-04-21 10:01 | 25.26153 | 55.34080 | -4 ft | 10 kts | 165° |
| 2026-04-21 10:01 | 25.26123 | 55.34094 | 1 ft | 2 kts | 155° |
| 2026-04-21 10:01 | 25.26099 | 55.34106 | 5 ft | 5 kts | 155° |
| 2026-04-21 10:02 | 25.26079 | 55.34116 | 7 ft | 0 kts | 156° |